createdAt,value
2019-04-14T00:01:49.904Z,58.70
2019-04-14T00:04:22.831Z,58.70
2019-04-14T00:06:52.886Z,58.80
2019-04-14T00:09:22.746Z,58.90
2019-04-14T00:11:52.728Z,58.90
2019-04-14T00:14:22.882Z,59.00
2019-04-14T00:16:53.168Z,59.00
2019-04-14T00:19:23.852Z,59.00
2019-04-14T00:21:54.437Z,59.10
2019-04-14T00:24:24.924Z,59.10
2019-04-14T00:26:55.231Z,59.10
2019-04-14T00:29:24.877Z,59.10
2019-04-14T00:31:55.488Z,59.00
2019-04-14T00:34:35.377Z,59.00
2019-04-14T00:37:18.220Z,59.00
2019-04-14T00:39:51.177Z,58.90
2019-04-14T00:42:40.816Z,58.90
2019-04-14T00:45:32.176Z,58.80
2019-04-14T00:48:03.353Z,58.70
2019-04-14T00:50:27.621Z,58.90
2019-04-14T00:52:58.810Z,59.00
2019-04-14T00:55:29.251Z,59.30
2019-04-14T00:57:59.489Z,59.30
2019-04-14T01:00:29.739Z,59.30
2019-04-14T01:03:00.381Z,59.50
2019-04-14T01:05:32.828Z,59.80
2019-04-14T01:08:01.352Z,60.00
2019-04-14T01:10:32.107Z,60.00
2019-04-14T01:13:02.769Z,60.20
2019-04-14T01:15:46.207Z,60.10
2019-04-14T01:18:03.761Z,60.10
2019-04-14T01:20:34.259Z,60.20
2019-04-14T01:23:04.213Z,60.10
2019-04-14T01:25:34.636Z,60.00
2019-04-14T01:28:04.681Z,59.80
2019-04-14T01:30:35.106Z,59.60
2019-04-14T01:33:05.436Z,59.50
2019-04-14T01:35:35.731Z,59.40
2019-04-14T01:38:05.936Z,59.30
2019-04-14T01:40:38.213Z,59.10
2019-04-14T01:43:08.136Z,59.00
2019-04-14T01:45:38.189Z,58.70
2019-04-14T01:48:08.429Z,58.50
2019-04-14T01:50:47.579Z,58.40
2019-04-14T01:53:35.718Z,58.40
2019-04-14T01:56:29.439Z,58.30
2019-04-14T01:59:00.043Z,58.20
2019-04-14T02:01:32.451Z,58.00
2019-04-14T02:04:02.924Z,57.80
2019-04-14T02:06:33.344Z,57.60
2019-04-14T02:09:07.926Z,57.60
2019-04-14T02:11:37.690Z,57.60
2019-04-14T02:14:08.284Z,57.50
2019-04-14T02:16:44.379Z,57.40
2019-04-14T02:19:09.259Z,57.30
2019-04-14T02:21:41.253Z,57.30
2019-04-14T02:24:11.360Z,57.30
2019-04-14T02:26:41.591Z,57.30
2019-04-14T02:29:12.148Z,57.20
2019-04-14T02:32:09.909Z,57.20
2019-04-14T02:34:39.142Z,57.10
2019-04-14T02:37:10.750Z,56.90
2019-04-14T02:39:48.385Z,56.90
2019-04-14T02:44:44.283Z,57.20
2019-04-14T02:47:36.845Z,56.50
2019-04-14T02:52:20.514Z,56.10
2019-04-14T02:59:54.433Z,55.70
2019-04-14T03:02:38.579Z,55.60
2019-04-14T03:05:00.035Z,55.60
2019-04-14T03:07:34.083Z,55.60
2019-04-14T03:10:12.709Z,55.50
2019-04-14T03:15:01.275Z,55.40
2019-04-14T03:20:32.292Z,55.20
2019-04-14T03:23:04.999Z,55.20
2019-04-14T03:25:43.691Z,55.20
2019-04-14T03:28:50.776Z,55.10
2019-04-14T03:34:18.369Z,55.00
2019-04-14T03:37:37.782Z,54.90
2019-04-14T03:38:58.825Z,54.70
2019-04-14T03:41:25.791Z,54.60
2019-04-14T03:43:46.307Z,54.50
2019-04-14T03:46:27.363Z,54.50
2019-04-14T03:48:58.497Z,54.40
2019-04-14T03:51:40.491Z,54.40
2019-04-14T03:53:52.023Z,54.30
2019-04-14T03:56:39.917Z,54.10
2019-04-14T03:59:10.537Z,53.90
2019-04-14T04:01:41.257Z,53.80
2019-04-14T04:04:11.892Z,53.70
2019-04-14T04:06:42.167Z,53.70
2019-04-14T04:09:12.575Z,53.70
2019-04-14T04:11:43.400Z,53.50
2019-04-14T04:14:13.966Z,53.60
2019-04-14T04:16:50.840Z,53.40
2019-04-14T04:19:57.763Z,53.50
2019-04-14T04:23:05.183Z,53.40
2019-04-14T04:26:12.583Z,53.20
2019-04-14T04:29:13.594Z,53.20
2019-04-14T04:32:05.798Z,53.10
2019-04-14T04:35:00.375Z,53.10
2019-04-14T04:37:54.672Z,53.00
2019-04-14T04:40:27.214Z,52.90
2019-04-14T04:42:56.995Z,52.80
2019-04-14T04:45:27.709Z,52.80
2019-04-14T04:47:58.384Z,52.80
2019-04-14T04:50:28.664Z,52.80
2019-04-14T04:52:58.444Z,52.70
2019-04-14T04:55:28.643Z,52.60
2019-04-14T04:57:59.125Z,52.50
2019-04-14T05:00:28.835Z,52.30
2019-04-14T05:02:59.328Z,52.20
2019-04-14T05:06:04.643Z,52.00
2019-04-14T05:08:34.821Z,51.90
2019-04-14T05:11:27.397Z,51.70
2019-04-14T05:13:58.204Z,51.60
2019-04-14T05:16:28.170Z,51.50
2019-04-14T05:19:12.029Z,51.30
2019-04-14T05:21:30.274Z,51.60
2019-04-14T05:24:00.655Z,50.80
2019-04-14T05:26:30.861Z,50.40
2019-04-14T05:29:03.599Z,50.20
2019-04-14T05:31:33.651Z,49.90
2019-04-14T05:34:04.348Z,49.80
2019-04-14T05:36:34.621Z,49.60
2019-04-14T05:39:05.368Z,49.60
2019-04-14T05:41:35.390Z,49.40
2019-04-14T05:44:06.296Z,49.00
2019-04-14T05:46:36.097Z,48.70
2019-04-14T05:49:06.551Z,48.50
2019-04-14T05:51:37.192Z,48.20
2019-04-14T05:54:07.816Z,47.90
2019-04-14T05:56:38.099Z,47.60
2019-04-14T05:59:08.916Z,47.20
2019-04-14T06:01:39.243Z,46.80
2019-04-14T06:04:09.374Z,46.50
2019-04-14T06:06:39.004Z,46.10
2019-04-14T06:09:09.793Z,45.70
2019-04-14T06:11:39.517Z,45.10
2019-04-14T06:14:10.531Z,44.70
2019-04-14T06:16:40.199Z,44.40
2019-04-14T06:19:09.945Z,44.10
2019-04-14T06:21:40.384Z,43.90
2019-04-14T06:24:10.033Z,43.50
2019-04-14T06:26:40.778Z,43.20
2019-04-14T06:29:10.428Z,42.80
2019-04-14T06:31:51.704Z,42.70
2019-04-14T06:34:29.172Z,42.50
2019-04-14T06:37:26.528Z,42.10
2019-04-14T06:39:56.156Z,41.90
2019-04-14T06:42:25.763Z,41.60
2019-04-14T06:44:55.423Z,41.50
2019-04-14T06:47:25.089Z,41.30
2019-04-14T06:49:54.763Z,41.20
2019-04-14T06:52:24.473Z,41.10
2019-04-14T06:54:54.123Z,40.80
2019-04-14T06:57:23.829Z,40.60
2019-04-14T06:59:53.453Z,40.50
2019-04-14T07:02:23.387Z,39.30
2019-04-14T07:04:53.069Z,39.10
2019-04-14T07:07:25.114Z,38.70
2019-04-14T07:09:54.781Z,38.40
2019-04-14T07:12:24.474Z,38.20
2019-04-14T07:14:54.140Z,37.90
2019-04-14T07:17:23.799Z,37.70
2019-04-14T07:20:01.872Z,37.40
2019-04-14T07:22:24.756Z,37.10
2019-04-14T07:24:54.431Z,37.00
2019-04-14T07:27:24.052Z,36.80
2019-04-14T07:30:06.940Z,36.80
2019-04-14T07:32:49.952Z,36.60
2019-04-14T07:35:33.530Z,36.50
2019-04-14T07:38:22.141Z,36.40
2019-04-14T07:41:02.620Z,36.40
2019-04-14T07:43:41.039Z,36.40
2019-04-14T07:46:17.279Z,36.30
2019-04-14T07:49:12.200Z,36.30
2019-04-14T07:52:10.039Z,36.20
2019-04-14T07:54:55.185Z,36.20
2019-04-14T07:57:43.690Z,36.10
2019-04-14T08:00:26.000Z,36.00
2019-04-14T08:03:00.748Z,35.80
2019-04-14T08:05:34.870Z,35.70
2019-04-14T08:08:04.662Z,35.50
2019-04-14T08:10:34.393Z,35.40
2019-04-14T08:13:04.024Z,35.30
2019-04-14T08:15:33.681Z,35.20
2019-04-14T08:18:03.302Z,35.00
2019-04-14T08:20:32.946Z,34.90
2019-04-14T08:23:02.956Z,34.50
2019-04-14T08:25:32.659Z,34.20
2019-04-14T08:28:02.285Z,33.90
2019-04-14T08:30:32.089Z,33.90
2019-04-14T08:33:01.713Z,33.70
2019-04-14T08:35:31.346Z,33.70
2019-04-14T08:38:01.043Z,33.70
2019-04-14T08:40:31.092Z,33.70
2019-04-14T08:43:19.687Z,33.60
2019-04-14T08:46:18.067Z,33.10
2019-04-14T08:49:09.654Z,33.10
2019-04-14T08:52:03.967Z,33.10
2019-04-14T08:55:04.466Z,33.10
2019-04-14T08:57:49.402Z,32.70
2019-04-14T09:00:38.204Z,32.60
2019-04-14T09:03:32.814Z,32.80
2019-04-14T09:06:06.782Z,32.80
2019-04-14T09:08:58.144Z,32.60
2019-04-14T09:11:32.508Z,32.60
2019-04-14T09:14:02.193Z,32.60
2019-04-14T09:16:31.844Z,32.70
2019-04-14T09:19:07.407Z,32.50
2019-04-14T09:21:33.193Z,32.30
2019-04-14T09:24:02.782Z,32.30
2019-04-14T09:26:32.416Z,32.10
2019-04-14T09:29:02.064Z,32.00
2019-04-14T09:31:31.712Z,32.00
2019-04-14T09:34:01.396Z,32.50
2019-04-14T09:36:31.145Z,31.70
2019-04-14T09:39:00.849Z,31.60
2019-04-14T09:41:30.795Z,31.50
2019-04-14T09:44:00.427Z,31.50
2019-04-14T09:46:30.064Z,31.30
2019-04-14T09:48:59.822Z,31.20
2019-04-14T09:51:29.487Z,31.40
2019-04-14T09:53:59.161Z,31.60
2019-04-14T09:56:28.852Z,31.60
2019-04-14T09:58:58.484Z,31.60
2019-04-14T10:01:28.106Z,31.60
2019-04-14T10:03:57.825Z,31.40
2019-04-14T10:06:27.512Z,30.90
2019-04-14T10:08:57.161Z,30.70
2019-04-14T10:11:26.857Z,30.60
2019-04-14T10:13:56.624Z,30.40
2019-04-14T10:16:28.070Z,30.40
2019-04-14T10:18:58.107Z,30.20
2019-04-14T10:21:27.770Z,30.00
2019-04-14T10:23:57.402Z,30.00
2019-04-14T10:26:27.100Z,29.90
2019-04-14T10:28:56.720Z,29.70
2019-04-14T10:31:26.386Z,29.70
2019-04-14T10:33:56.160Z,29.80
2019-04-14T10:36:25.862Z,29.90
2019-04-14T10:38:55.915Z,30.00
2019-04-14T10:41:25.627Z,30.00
2019-04-14T10:43:55.609Z,29.90
2019-04-14T10:46:25.361Z,29.90
2019-04-14T10:48:57.815Z,29.70
2019-04-14T10:51:30.332Z,29.60
2019-04-14T10:53:58.819Z,29.40
2019-04-14T10:56:28.454Z,29.40
2019-04-14T10:59:00.113Z,29.40
2019-04-14T11:01:29.896Z,29.30
2019-04-14T11:03:59.589Z,29.10
2019-04-14T11:06:48.144Z,28.90
2019-04-14T11:09:17.851Z,29.00
2019-04-14T11:11:47.574Z,28.90
2019-04-14T11:14:17.292Z,28.90
2019-04-14T11:16:46.974Z,29.00
2019-04-14T11:19:16.683Z,29.00
2019-04-14T11:21:46.348Z,29.00
2019-04-14T11:24:16.027Z,29.10
2019-04-14T11:26:47.498Z,29.10
2019-04-14T11:29:17.122Z,29.10
2019-04-14T11:32:03.141Z,29.10
2019-04-14T11:34:58.043Z,29.00
2019-04-14T11:37:49.396Z,28.80
2019-04-14T11:40:21.723Z,28.50
2019-04-14T11:42:52.446Z,28.40
2019-04-14T11:45:22.545Z,28.20
2019-04-14T11:47:52.727Z,28.00
2019-04-14T11:50:22.304Z,27.70
2019-04-14T11:52:51.956Z,27.70
2019-04-14T11:55:21.895Z,27.10
2019-04-14T11:57:51.572Z,26.90
2019-04-14T12:00:58.455Z,27.30
2019-04-14T12:03:43.684Z,26.70
2019-04-14T12:06:35.290Z,26.80
2019-04-14T12:09:17.087Z,26.80
2019-04-14T12:11:46.746Z,26.80
2019-04-14T12:14:16.380Z,26.90
2019-04-14T12:16:46.044Z,26.90
2019-04-14T12:19:15.710Z,26.70
2019-04-14T12:21:46.244Z,26.60
2019-04-14T12:24:15.938Z,26.40
2019-04-14T12:26:45.592Z,26.50
2019-04-14T12:29:16.772Z,26.50
2019-04-14T12:31:46.712Z,26.40
2019-04-14T12:34:18.331Z,26.40
2019-04-14T12:36:47.968Z,26.10
2019-04-14T12:39:22.506Z,25.90
2019-04-14T12:42:06.987Z,26.00
2019-04-14T12:44:49.774Z,25.90
2019-04-14T12:47:40.346Z,25.80
2019-04-14T12:50:18.456Z,25.30
2019-04-14T12:52:48.204Z,24.90
2019-04-14T12:55:17.915Z,24.90
2019-04-14T12:57:48.962Z,24.90
2019-04-14T13:00:25.059Z,24.60
2019-04-14T13:02:54.772Z,24.60
2019-04-14T13:05:24.423Z,24.60
2019-04-14T13:07:55.488Z,24.60
2019-04-14T13:10:25.197Z,24.60
2019-04-14T13:12:54.863Z,24.60
2019-04-14T13:15:24.651Z,24.40
2019-04-14T13:17:54.376Z,23.70
2019-04-14T13:20:24.123Z,23.90
2019-04-14T13:22:53.851Z,24.00
2019-04-14T13:25:23.509Z,23.60
2019-04-14T13:27:53.310Z,23.50
2019-04-14T13:30:29.709Z,23.40
2019-04-14T13:32:59.350Z,23.30
2019-04-14T13:35:29.344Z,22.90
2019-04-14T13:38:00.630Z,22.20
2019-04-14T13:40:30.267Z,21.60
2019-04-14T13:42:59.880Z,21.20
2019-04-14T13:45:29.553Z,20.80
2019-04-14T13:47:59.262Z,20.50
2019-04-14T13:50:29.195Z,19.90
2019-04-14T13:53:05.618Z,19.80
2019-04-14T13:55:35.305Z,20.10
2019-04-14T13:58:05.115Z,19.60
2019-04-14T14:00:35.080Z,18.60
2019-04-14T14:03:04.800Z,18.30
2019-04-14T14:05:35.983Z,18.00
2019-04-14T14:08:05.681Z,18.00
2019-04-14T14:10:35.360Z,17.80
2019-04-14T14:13:22.579Z,17.70
2019-04-14T14:16:11.299Z,17.40
2019-04-14T14:19:07.810Z,17.10
2019-04-14T14:21:57.516Z,17.20
2019-04-14T14:24:46.410Z,17.00
2019-04-14T14:27:16.184Z,16.90
2019-04-14T14:29:47.883Z,16.80
2019-04-14T14:32:26.541Z,17.20
2019-04-14T14:34:56.221Z,18.20
2019-04-14T14:37:25.835Z,18.30
2019-04-14T14:39:55.516Z,17.30
2019-04-14T14:42:25.166Z,17.30
2019-04-14T14:45:13.751Z,16.90
2019-04-14T14:47:48.806Z,16.50
2019-04-14T14:50:40.998Z,16.30
2019-04-14T14:53:12.365Z,16.10
2019-04-14T14:55:42.545Z,16.30
2019-04-14T14:58:12.170Z,16.40
2019-04-14T15:00:42.067Z,16.40
2019-04-14T15:03:12.045Z,16.40
2019-04-14T15:05:41.645Z,16.70
2019-04-14T15:08:13.558Z,16.90
2019-04-14T15:10:43.336Z,17.20
2019-04-14T15:13:14.232Z,17.40
2019-04-14T15:15:45.117Z,17.50
2019-04-14T15:18:15.723Z,17.40
2019-04-14T15:20:47.640Z,17.30
2019-04-14T15:23:25.139Z,17.20
2019-04-14T15:25:50.885Z,17.30
2019-04-14T15:28:20.490Z,17.40
2019-04-14T15:30:50.181Z,17.40
2019-04-14T15:33:19.811Z,17.60
2019-04-14T15:35:49.591Z,17.60
2019-04-14T15:38:19.311Z,17.60
2019-04-14T15:40:49.509Z,17.50
2019-04-14T15:43:19.139Z,17.50
2019-04-14T15:45:48.943Z,17.50
2019-04-14T15:48:25.403Z,17.40
2019-04-14T15:50:55.126Z,17.30
2019-04-14T15:53:36.936Z,17.20
2019-04-14T15:55:56.420Z,17.40
2019-04-14T15:58:49.157Z,17.30
2019-04-14T16:01:53.147Z,17.20
2019-04-14T16:04:30.545Z,17.30
2019-04-14T16:07:24.972Z,17.60
2019-04-14T16:10:05.815Z,18.10
2019-04-14T16:12:57.674Z,18.50
2019-04-14T16:15:47.070Z,18.70
2019-04-14T16:18:38.833Z,18.90
2019-04-14T16:21:08.581Z,19.20
2019-04-14T16:23:49.979Z,19.50
2019-04-14T16:26:31.374Z,19.80
2019-04-14T16:29:06.143Z,20.20
2019-04-14T16:31:57.812Z,20.70
2019-04-14T16:34:33.974Z,21.20
2019-04-14T16:37:03.652Z,21.60
2019-04-14T16:39:35.444Z,22.10
2019-04-14T16:42:05.176Z,22.30
2019-04-14T16:44:34.862Z,22.70
2019-04-14T16:47:05.206Z,23.00
2019-04-14T16:49:34.934Z,23.30
2019-04-14T16:52:23.613Z,23.60
2019-04-14T16:55:10.766Z,24.50
2019-04-14T16:58:03.854Z,25.00
2019-04-14T17:00:38.628Z,25.30
2019-04-14T17:03:08.317Z,25.70
2019-04-14T17:05:39.147Z,26.30
2019-04-14T17:08:09.023Z,26.90
2019-04-14T17:10:38.811Z,27.70
2019-04-14T17:13:08.496Z,27.30
2019-04-14T17:15:54.769Z,27.70
2019-04-14T17:18:46.302Z,28.00
2019-04-14T17:21:38.965Z,28.30
2019-04-14T17:24:24.375Z,28.40
2019-04-14T17:27:01.311Z,28.70
2019-04-14T17:29:45.551Z,28.90
2019-04-14T17:32:30.977Z,29.20
2019-04-14T17:35:31.144Z,29.40
2019-04-14T17:38:10.418Z,29.60
2019-04-14T17:41:07.964Z,29.70
2019-04-14T17:43:54.491Z,30.30
2019-04-14T17:46:41.489Z,30.80
2019-04-14T17:49:28.601Z,30.80
2019-04-14T17:52:15.520Z,30.80
2019-04-14T17:54:55.553Z,31.10
2019-04-14T17:57:53.231Z,31.20
2019-04-14T18:00:41.869Z,32.30
2019-04-14T18:03:20.748Z,32.70
2019-04-14T18:05:53.731Z,32.90
2019-04-14T18:08:42.921Z,33.10
2019-04-14T18:11:31.508Z,33.30
2019-04-14T18:14:20.155Z,33.60
2019-04-14T18:16:58.331Z,33.80
2019-04-14T18:19:36.910Z,33.90
2019-04-14T18:22:06.690Z,34.10
2019-04-14T18:24:42.797Z,34.20
2019-04-14T18:27:07.762Z,34.40
2019-04-14T18:30:05.562Z,34.60
2019-04-14T18:32:41.482Z,34.90
2019-04-14T18:35:37.538Z,35.10
2019-04-14T18:38:19.954Z,35.30
2019-04-14T18:41:00.549Z,35.50
2019-04-14T18:43:55.171Z,35.60
2019-04-14T18:46:45.347Z,36.00
2019-04-14T18:49:36.387Z,36.20
2019-04-14T18:52:16.885Z,36.10
2019-04-14T18:55:08.552Z,36.20
2019-04-14T18:57:56.413Z,36.50
2019-04-14T19:00:44.941Z,36.60
2019-04-14T19:03:14.781Z,36.70
2019-04-14T19:05:44.712Z,36.90
2019-04-14T19:08:14.550Z,37.00
2019-04-14T19:10:46.168Z,37.00
2019-04-14T19:13:22.546Z,37.10
2019-04-14T19:16:17.192Z,37.20
2019-04-14T19:18:49.435Z,37.40
2019-04-14T19:21:21.737Z,37.60
2019-04-14T19:23:51.601Z,37.70
2019-04-14T19:26:21.260Z,37.90
2019-04-14T19:28:50.868Z,38.20
2019-04-14T19:31:21.018Z,38.30
2019-04-14T19:33:50.715Z,38.40
2019-04-14T19:36:20.378Z,38.50
2019-04-14T19:38:50.072Z,38.60
2019-04-14T19:41:19.789Z,38.70
2019-04-14T19:43:49.668Z,39.10
2019-04-14T19:46:19.412Z,39.30
2019-04-14T19:48:49.379Z,39.20
2019-04-14T19:51:19.079Z,39.30
2019-04-14T19:53:48.779Z,39.40
2019-04-14T19:56:18.456Z,39.50
2019-04-14T19:58:48.070Z,39.60
2019-04-14T20:01:17.988Z,39.60
2019-04-14T20:03:48.723Z,39.80
2019-04-14T20:06:19.669Z,39.90
2019-04-14T20:08:49.419Z,40.00
2019-04-14T20:11:19.051Z,40.10
2019-04-14T20:13:48.785Z,40.30
2019-04-14T20:16:52.346Z,40.40
2019-04-14T20:19:40.795Z,40.60
2019-04-14T20:22:18.890Z,40.70
2019-04-14T20:25:03.161Z,40.90
2019-04-14T20:27:54.573Z,41.10
2019-04-14T20:30:43.150Z,41.20
2019-04-14T20:33:13.814Z,41.50
2019-04-14T20:35:43.494Z,41.50
2019-04-14T20:38:13.156Z,41.70
2019-04-14T20:40:43.114Z,42.00
2019-04-14T20:43:12.730Z,42.10
2019-04-14T20:45:42.382Z,42.60
2019-04-14T20:48:14.670Z,42.70
2019-04-14T20:50:45.001Z,42.80
2019-04-14T20:53:14.644Z,42.90
2019-04-14T20:55:47.092Z,43.10
2019-04-14T20:58:15.705Z,43.20
2019-04-14T21:00:45.459Z,43.20
2019-04-14T21:03:27.330Z,43.40
2019-04-14T21:06:34.886Z,43.50
2019-04-14T21:09:21.960Z,43.60
2019-04-14T21:12:02.021Z,43.60
2019-04-14T21:14:59.661Z,43.70
2019-04-14T21:17:33.085Z,44.00
2019-04-14T21:20:34.822Z,44.80
2019-04-14T21:23:21.814Z,44.30
2019-04-14T21:26:00.927Z,44.50
2019-04-14T21:28:52.045Z,44.80
2019-04-14T21:31:34.631Z,44.90
2019-04-14T21:34:10.798Z,45.00
2019-04-14T21:37:05.380Z,45.20
2019-04-14T21:39:40.762Z,45.30
2019-04-14T21:42:10.492Z,45.40
2019-04-14T21:44:40.151Z,45.60
2019-04-14T21:47:09.819Z,45.70
2019-04-14T21:49:39.490Z,45.90
2019-04-14T21:52:16.271Z,46.00
2019-04-14T21:54:46.217Z,46.20
2019-04-14T21:57:41.315Z,46.30
2019-04-14T22:00:44.271Z,46.60
2019-04-14T22:03:32.902Z,46.80
2019-04-14T22:06:10.489Z,46.90
2019-04-14T22:08:44.797Z,47.00
2019-04-14T22:11:18.404Z,47.20
2019-04-14T22:13:50.753Z,47.40
2019-04-14T22:16:19.450Z,47.40
2019-04-14T22:18:49.116Z,47.60
2019-04-14T22:21:18.938Z,47.80
2019-04-14T22:24:00.318Z,48.00
2019-04-14T22:26:26.073Z,48.20
2019-04-14T22:28:51.387Z,48.40
2019-04-14T22:31:21.065Z,48.50
2019-04-14T22:33:50.706Z,48.60
2019-04-14T22:36:20.361Z,48.70
2019-04-14T22:38:50.051Z,48.90
2019-04-14T22:41:19.667Z,49.00
2019-04-14T22:43:49.652Z,49.20
2019-04-14T22:46:19.410Z,49.30
2019-04-14T22:48:49.035Z,49.40
2019-04-14T22:51:18.699Z,49.50
2019-04-14T22:53:48.438Z,49.70
2019-04-14T22:56:18.142Z,49.90
2019-04-14T22:58:49.114Z,50.00
2019-04-14T23:01:24.914Z,50.10
2019-04-14T23:04:25.206Z,50.20
2019-04-14T23:07:17.546Z,50.40
2019-04-14T23:10:01.947Z,50.50
2019-04-14T23:12:56.396Z,50.60
2019-04-14T23:15:50.825Z,50.70
2019-04-14T23:18:39.399Z,50.80
2019-04-14T23:21:36.986Z,51.00
2019-04-14T23:24:31.395Z,51.20
2019-04-14T23:27:01.074Z,51.30
2019-04-14T23:29:30.739Z,51.50
2019-04-14T23:32:00.401Z,51.70
2019-04-14T23:34:30.056Z,51.80
2019-04-14T23:36:59.746Z,52.00
2019-04-14T23:39:29.425Z,52.20
2019-04-14T23:41:59.182Z,52.40
2019-04-14T23:44:28.857Z,52.60
2019-04-14T23:46:58.674Z,52.70
2019-04-14T23:49:28.404Z,53.00
2019-04-14T23:51:58.217Z,53.20
2019-04-14T23:54:27.885Z,53.30
2019-04-14T23:57:05.978Z,53.40
2019-04-14T23:59:30.820Z,53.60
